createdAt,value
2018-05-29T00:02:24.570Z,23.70
2018-05-29T00:04:52.289Z,23.60
2018-05-29T00:07:19.274Z,23.60
2018-05-29T00:09:47.023Z,23.70
2018-05-29T00:12:14.564Z,23.70
2018-05-29T00:14:41.539Z,23.80
2018-05-29T00:17:09.254Z,23.70
2018-05-29T00:19:36.415Z,23.60
2018-05-29T00:22:04.058Z,23.70
2018-05-29T00:24:31.500Z,23.80
2018-05-29T00:26:58.964Z,23.80
2018-05-29T00:29:25.946Z,23.80
2018-05-29T00:31:53.386Z,23.70
2018-05-29T00:34:20.810Z,23.70
2018-05-29T00:36:48.283Z,23.70
2018-05-29T00:39:15.686Z,23.60
2018-05-29T00:41:43.127Z,23.60
2018-05-29T00:44:10.558Z,23.50
2018-05-29T00:46:38.008Z,23.50
2018-05-29T00:49:05.182Z,23.50
2018-05-29T00:51:33.064Z,23.50
2018-05-29T00:54:00.495Z,23.40
2018-05-29T00:56:27.933Z,23.40
2018-05-29T00:58:54.906Z,23.30
2018-05-29T01:01:21.950Z,23.40
2018-05-29T01:03:48.922Z,23.30
2018-05-29T01:06:16.678Z,23.30
2018-05-29T01:08:43.711Z,23.30
2018-05-29T01:11:10.702Z,23.30
2018-05-29T01:13:37.678Z,23.20
2018-05-29T01:16:04.662Z,23.20
2018-05-29T01:18:32.191Z,23.10
2018-05-29T01:20:59.178Z,23.10
2018-05-29T01:23:26.754Z,23.10
2018-05-29T01:25:54.520Z,23.10
2018-05-29T01:28:21.942Z,23.00
2018-05-29T01:30:49.378Z,23.10
2018-05-29T01:33:16.803Z,23.10
2018-05-29T01:35:44.474Z,23.10
2018-05-29T01:38:11.931Z,23.00
2018-05-29T01:40:39.359Z,22.90
2018-05-29T01:43:06.794Z,22.80
2018-05-29T01:45:34.227Z,22.70
2018-05-29T01:48:01.655Z,22.70
2018-05-29T01:50:29.206Z,22.70
2018-05-29T01:52:56.638Z,22.60
2018-05-29T01:55:24.062Z,22.60
2018-05-29T01:57:51.507Z,22.50
2018-05-29T02:00:18.931Z,22.50
2018-05-29T02:02:46.371Z,22.40
2018-05-29T02:05:13.800Z,22.30
2018-05-29T02:07:42.004Z,22.30
2018-05-29T02:10:09.431Z,22.30
2018-05-29T02:12:36.859Z,22.30
2018-05-29T02:15:04.291Z,22.20
2018-05-29T02:17:31.723Z,21.90
2018-05-29T02:19:59.146Z,21.90
2018-05-29T02:22:27.083Z,21.50
2018-05-29T02:24:54.511Z,21.50
2018-05-29T02:27:21.971Z,21.60
2018-05-29T02:29:49.402Z,21.80
2018-05-29T02:32:16.838Z,21.90
2018-05-29T02:34:44.257Z,21.70
2018-05-29T02:37:11.802Z,21.70
2018-05-29T02:39:39.255Z,21.70
2018-05-29T02:42:06.694Z,21.60
2018-05-29T02:44:34.166Z,21.60
2018-05-29T02:47:01.603Z,21.60
2018-05-29T02:49:29.079Z,21.60
2018-05-29T02:51:56.562Z,21.50
2018-05-29T02:54:23.987Z,21.50
2018-05-29T02:56:51.427Z,21.60
2018-05-29T02:59:18.858Z,21.50
2018-05-29T03:01:46.286Z,21.60
2018-05-29T03:04:13.711Z,21.50
2018-05-29T03:06:41.185Z,21.50
2018-05-29T03:09:08.621Z,21.60
2018-05-29T03:11:36.814Z,21.50
2018-05-29T03:14:04.242Z,21.50
2018-05-29T03:16:31.671Z,21.50
2018-05-29T03:18:59.111Z,21.50
2018-05-29T03:21:26.534Z,21.50
2018-05-29T03:23:53.969Z,21.40
2018-05-29T03:26:21.444Z,21.30
2018-05-29T03:28:48.907Z,21.20
2018-05-29T03:31:16.350Z,21.00
2018-05-29T03:33:43.916Z,20.90
2018-05-29T03:36:11.342Z,20.80
2018-05-29T03:38:38.778Z,20.70
2018-05-29T03:41:06.206Z,20.80
2018-05-29T03:43:33.729Z,20.90
2018-05-29T03:46:01.155Z,20.80
2018-05-29T03:48:28.590Z,20.80
2018-05-29T03:50:56.018Z,20.80
2018-05-29T03:53:23.454Z,20.80
2018-05-29T03:55:50.887Z,20.90
2018-05-29T03:58:18.372Z,20.80
2018-05-29T04:00:45.932Z,20.80
2018-05-29T04:03:13.566Z,20.90
2018-05-29T04:05:41.051Z,20.90
2018-05-29T04:08:08.492Z,21.00
2018-05-29T04:10:36.068Z,20.90
2018-05-29T04:13:03.499Z,21.00
2018-05-29T04:15:30.931Z,20.90
2018-05-29T04:17:58.386Z,20.90
2018-05-29T04:20:25.494Z,20.90
2018-05-29T04:22:52.930Z,21.00
2018-05-29T04:25:20.487Z,21.00
2018-05-29T04:27:47.922Z,21.00
2018-05-29T04:30:15.346Z,21.00
2018-05-29T04:32:42.788Z,21.00
2018-05-29T04:35:10.247Z,21.00
2018-05-29T04:37:37.228Z,21.10
2018-05-29T04:40:04.663Z,21.10
2018-05-29T04:42:32.383Z,21.00
2018-05-29T04:44:59.827Z,21.10
2018-05-29T04:47:27.250Z,21.10
2018-05-29T04:49:54.750Z,21.10
2018-05-29T04:52:22.174Z,21.10
2018-05-29T04:54:49.610Z,21.20
2018-05-29T04:57:17.115Z,21.20
2018-05-29T04:59:44.831Z,21.30
2018-05-29T05:02:12.263Z,21.30
2018-05-29T05:04:39.699Z,21.30
2018-05-29T05:07:07.131Z,21.30
2018-05-29T05:09:34.699Z,21.40
2018-05-29T05:12:02.123Z,21.50
2018-05-29T05:14:29.567Z,21.50
2018-05-29T05:16:56.994Z,21.60
2018-05-29T05:19:24.430Z,21.60
2018-05-29T05:21:51.856Z,21.70
2018-05-29T05:24:19.427Z,21.60
2018-05-29T05:26:46.863Z,21.50
2018-05-29T05:29:14.298Z,21.50
2018-05-29T05:31:42.630Z,21.60
2018-05-29T05:34:10.103Z,21.50
2018-05-29T05:36:37.544Z,21.60
2018-05-29T05:39:05.715Z,21.70
2018-05-29T05:41:33.147Z,21.70
2018-05-29T05:44:00.578Z,21.70
2018-05-29T05:46:28.022Z,21.70
2018-05-29T05:48:56.462Z,21.80
2018-05-29T05:51:23.907Z,21.80
2018-05-29T05:53:51.346Z,21.80
2018-05-29T05:56:18.766Z,21.90
2018-05-29T05:58:46.230Z,21.90
2018-05-29T06:01:13.659Z,21.90
2018-05-29T06:03:41.090Z,22.00
2018-05-29T06:06:08.518Z,22.00
2018-05-29T06:08:35.961Z,22.10
2018-05-29T06:11:04.142Z,22.30
2018-05-29T06:13:31.135Z,22.30
2018-05-29T06:15:58.568Z,22.40
2018-05-29T06:18:25.987Z,22.40
2018-05-29T06:20:53.422Z,22.50
2018-05-29T06:23:20.846Z,22.50
2018-05-29T06:25:48.292Z,22.60
2018-05-29T06:28:15.723Z,22.60
2018-05-29T06:30:43.158Z,22.70
2018-05-29T06:33:10.132Z,22.80
2018-05-29T06:35:37.217Z,22.90
2018-05-29T06:38:04.194Z,22.80
2018-05-29T06:40:32.030Z,22.90
2018-05-29T06:42:59.461Z,22.90
2018-05-29T06:45:26.902Z,23.00
2018-05-29T06:47:53.881Z,23.10
2018-05-29T06:50:20.869Z,23.20
2018-05-29T06:52:48.613Z,23.30
2018-05-29T06:55:16.119Z,23.30
2018-05-29T06:57:43.133Z,23.30
2018-05-29T07:00:10.540Z,23.20
2018-05-29T07:02:37.962Z,23.10
2018-05-29T07:05:05.453Z,23.20
2018-05-29T07:07:32.886Z,23.40
2018-05-29T07:10:00.319Z,23.40
2018-05-29T07:12:27.814Z,23.50
2018-05-29T07:14:55.247Z,23.50
2018-05-29T07:17:22.672Z,23.60
2018-05-29T07:19:50.108Z,23.70
2018-05-29T07:22:17.544Z,23.70
2018-05-29T07:24:45.002Z,23.80
2018-05-29T07:27:12.600Z,24.00
2018-05-29T07:29:39.999Z,24.00
2018-05-29T07:32:07.423Z,23.80
2018-05-29T07:34:34.861Z,23.90
2018-05-29T07:37:02.294Z,24.00
2018-05-29T07:39:29.845Z,24.10
2018-05-29T07:41:57.267Z,24.10
2018-05-29T07:44:24.705Z,24.30
2018-05-29T07:46:52.131Z,24.40
2018-05-29T07:49:19.555Z,24.50
2018-05-29T07:51:46.991Z,24.40
2018-05-29T07:54:14.475Z,24.40
2018-05-29T07:56:41.920Z,24.30
2018-05-29T07:59:09.343Z,24.20
2018-05-29T08:01:37.554Z,24.30
2018-05-29T08:04:05.007Z,24.20
2018-05-29T08:06:32.441Z,24.40
2018-05-29T08:08:59.866Z,24.50
2018-05-29T08:11:27.302Z,24.50
2018-05-29T08:13:54.727Z,24.60
2018-05-29T08:16:22.170Z,24.60
2018-05-29T08:18:49.752Z,24.50
2018-05-29T08:21:17.192Z,24.50
2018-05-29T08:23:44.659Z,24.60
2018-05-29T08:26:12.097Z,24.50
2018-05-29T08:28:39.523Z,24.80
2018-05-29T08:31:07.016Z,24.90
2018-05-29T08:33:34.379Z,25.00
2018-05-29T08:36:01.824Z,25.00
2018-05-29T08:38:29.394Z,25.10
2018-05-29T08:40:56.864Z,25.20
2018-05-29T08:43:25.050Z,25.20
2018-05-29T08:45:52.491Z,25.20
2018-05-29T08:48:20.119Z,25.30
2018-05-29T08:50:47.555Z,25.30
2018-05-29T08:53:14.979Z,25.20
2018-05-29T08:55:42.417Z,25.20
2018-05-29T08:58:09.970Z,25.40
2018-05-29T09:00:37.434Z,25.50
2018-05-29T09:03:04.883Z,25.50
2018-05-29T09:05:32.323Z,25.60
2018-05-29T09:07:59.756Z,25.60
2018-05-29T09:10:27.190Z,25.40
2018-05-29T09:12:54.710Z,25.40
2018-05-29T09:15:22.152Z,25.50
2018-05-29T09:17:49.621Z,25.40
2018-05-29T09:20:17.067Z,25.40
2018-05-29T09:22:44.503Z,25.50
2018-05-29T09:25:11.918Z,25.50
2018-05-29T09:27:39.351Z,25.60
2018-05-29T09:30:06.787Z,25.70
2018-05-29T09:32:34.214Z,25.80
2018-05-29T09:35:02.407Z,26.10
2018-05-29T09:37:29.870Z,26.00
2018-05-29T09:39:57.339Z,26.20
2018-05-29T09:42:24.774Z,26.20
2018-05-29T09:44:52.202Z,26.20
2018-05-29T09:47:19.642Z,26.20
2018-05-29T09:49:47.067Z,26.10
2018-05-29T09:52:14.505Z,25.90
2018-05-29T09:54:41.947Z,25.90
2018-05-29T09:57:09.387Z,25.90
2018-05-29T09:59:37.911Z,26.00
2018-05-29T10:02:05.672Z,26.00
2018-05-29T10:04:33.098Z,26.10
2018-05-29T10:07:00.567Z,26.30
2018-05-29T10:09:27.959Z,26.30
2018-05-29T10:11:55.498Z,26.50
2018-05-29T10:14:23.114Z,26.50
2018-05-29T10:16:51.325Z,26.70
2018-05-29T10:19:18.837Z,26.60
2018-05-29T10:21:46.222Z,26.70
2018-05-29T10:24:13.646Z,26.70
2018-05-29T10:26:41.087Z,26.60
2018-05-29T10:29:08.516Z,26.30
2018-05-29T10:31:35.943Z,26.20
2018-05-29T10:34:03.463Z,26.20
2018-05-29T10:36:30.899Z,26.30
2018-05-29T10:38:58.331Z,26.30
2018-05-29T10:41:25.776Z,26.40
2018-05-29T10:43:53.350Z,26.60
2018-05-29T10:46:20.787Z,26.70
2018-05-29T10:48:48.215Z,26.90
2018-05-29T10:51:15.651Z,26.90
2018-05-29T10:53:43.079Z,27.00
2018-05-29T10:56:10.509Z,26.90
2018-05-29T10:58:37.943Z,26.80
2018-05-29T11:01:06.142Z,26.70
2018-05-29T11:03:33.573Z,26.70
2018-05-29T11:06:00.999Z,26.60
2018-05-29T11:08:28.439Z,26.70
2018-05-29T11:10:55.881Z,26.70
2018-05-29T11:13:23.320Z,26.60
2018-05-29T11:15:50.799Z,26.40
2018-05-29T11:18:18.241Z,26.30
2018-05-29T11:20:45.715Z,26.30
2018-05-29T11:23:12.702Z,26.10
2018-05-29T11:25:40.131Z,26.00
2018-05-29T11:28:07.567Z,25.80
2018-05-29T11:30:34.998Z,25.70
2018-05-29T11:33:02.427Z,25.80
2018-05-29T11:35:29.863Z,25.80
2018-05-29T11:37:57.294Z,26.00
2018-05-29T11:40:24.719Z,26.00
2018-05-29T11:42:52.299Z,26.10
2018-05-29T11:45:19.726Z,26.10
2018-05-29T11:47:47.168Z,26.10
2018-05-29T11:50:14.674Z,26.20
2018-05-29T11:52:42.112Z,26.30
2018-05-29T11:55:09.538Z,26.40
2018-05-29T11:57:37.087Z,26.30
2018-05-29T12:00:04.519Z,26.10
2018-05-29T12:02:32.252Z,26.00
2018-05-29T12:04:59.706Z,26.00
2018-05-29T12:07:27.140Z,25.90
2018-05-29T12:09:54.623Z,25.70
2018-05-29T12:12:26.681Z,25.50
2018-05-29T12:14:54.108Z,25.40
2018-05-29T12:17:21.530Z,25.30
2018-05-29T12:19:48.963Z,25.20
2018-05-29T12:22:16.462Z,25.10
2018-05-29T12:24:43.839Z,25.10
2018-05-29T12:27:11.259Z,25.10
2018-05-29T12:29:38.686Z,25.00
2018-05-29T12:32:06.243Z,25.00
2018-05-29T12:34:33.679Z,24.90
2018-05-29T12:37:01.104Z,25.00
2018-05-29T12:39:29.499Z,24.90
2018-05-29T12:41:56.922Z,24.80
2018-05-29T12:44:24.531Z,25.00
2018-05-29T12:46:51.993Z,25.00
2018-05-29T12:49:19.451Z,24.90
2018-05-29T12:51:46.875Z,24.90
2018-05-29T12:54:14.318Z,25.00
2018-05-29T12:56:41.739Z,24.90
2018-05-29T12:59:09.242Z,24.80
2018-05-29T13:01:36.594Z,25.00
2018-05-29T13:04:04.796Z,25.60
2018-05-29T13:06:32.206Z,25.60
2018-05-29T13:08:59.626Z,26.40
2018-05-29T13:11:27.059Z,27.20
2018-05-29T13:13:54.487Z,27.90
2018-05-29T13:16:22.698Z,28.20
2018-05-29T13:18:50.886Z,28.20
2018-05-29T13:21:18.320Z,28.20
2018-05-29T13:23:45.894Z,27.90
2018-05-29T13:26:14.083Z,27.60
2018-05-29T13:28:41.503Z,27.60
2018-05-29T13:31:09.902Z,27.30
2018-05-29T13:33:37.326Z,27.30
2018-05-29T13:36:04.755Z,27.10
2018-05-29T13:38:32.175Z,26.90
2018-05-29T13:40:59.626Z,26.80
2018-05-29T13:43:27.048Z,26.80
2018-05-29T13:45:55.458Z,26.80
2018-05-29T13:48:22.907Z,26.90
2018-05-29T13:50:50.339Z,27.00
2018-05-29T13:53:17.758Z,27.50
2018-05-29T13:55:45.186Z,27.90
2018-05-29T13:58:12.611Z,28.10
2018-05-29T14:00:40.046Z,28.30
2018-05-29T14:03:07.749Z,28.50
2018-05-29T14:05:35.170Z,28.40
2018-05-29T14:08:02.656Z,28.40
2018-05-29T14:10:30.086Z,28.50
2018-05-29T14:12:57.507Z,28.60
2018-05-29T14:15:25.698Z,28.60
2018-05-29T14:17:53.270Z,28.60
2018-05-29T14:20:20.722Z,28.50
2018-05-29T14:22:48.919Z,27.80
2018-05-29T14:25:16.383Z,27.80
2018-05-29T14:27:43.807Z,27.50
2018-05-29T14:30:11.235Z,27.30
2018-05-29T14:32:38.654Z,27.00
2018-05-29T14:35:06.074Z,26.70
2018-05-29T14:37:34.463Z,26.40
2018-05-29T14:40:01.911Z,26.40
2018-05-29T14:42:29.342Z,26.40
2018-05-29T14:44:56.823Z,26.30
2018-05-29T14:47:24.260Z,26.50
2018-05-29T14:49:51.771Z,26.70
2018-05-29T14:52:19.235Z,27.20
2018-05-29T14:54:46.618Z,27.60
2018-05-29T14:57:14.055Z,28.10
2018-05-29T14:59:41.590Z,28.40
2018-05-29T15:02:08.998Z,28.60
2018-05-29T15:04:37.190Z,29.00
2018-05-29T15:07:04.623Z,29.00
2018-05-29T15:09:32.037Z,28.90
2018-05-29T15:11:59.479Z,28.80
2018-05-29T15:14:26.890Z,28.80
2018-05-29T15:16:55.108Z,28.40
2018-05-29T15:19:22.526Z,28.40
2018-05-29T15:21:49.959Z,28.50
2018-05-29T15:24:17.382Z,28.30
2018-05-29T15:26:44.806Z,28.00
2018-05-29T15:29:12.267Z,27.70
2018-05-29T15:31:39.690Z,27.60
2018-05-29T15:34:07.123Z,27.50
2018-05-29T15:36:34.543Z,27.40
2018-05-29T15:39:01.975Z,27.10
2018-05-29T15:41:29.543Z,27.00
2018-05-29T15:43:56.971Z,26.80
2018-05-29T15:46:24.400Z,26.70
2018-05-29T15:48:51.943Z,26.50
2018-05-29T15:51:19.359Z,26.30
2018-05-29T15:53:47.570Z,26.10
2018-05-29T15:56:14.994Z,26.10
2018-05-29T15:58:42.422Z,25.90
2018-05-29T16:01:10.611Z,25.50
2018-05-29T16:03:38.190Z,25.50
2018-05-29T16:06:05.615Z,25.30
2018-05-29T16:08:33.140Z,25.30
2018-05-29T16:11:00.655Z,25.30
2018-05-29T16:13:28.087Z,25.30
2018-05-29T16:15:55.508Z,25.40
2018-05-29T16:18:22.944Z,25.40
2018-05-29T16:20:50.415Z,25.50
2018-05-29T16:23:17.854Z,25.50
2018-05-29T16:25:45.274Z,25.60
2018-05-29T16:28:13.488Z,25.80
2018-05-29T16:30:40.910Z,25.70
2018-05-29T16:33:08.343Z,25.90
2018-05-29T16:35:35.770Z,26.00
2018-05-29T16:38:03.242Z,26.00
2018-05-29T16:40:30.730Z,26.10
2018-05-29T16:42:58.079Z,26.10
2018-05-29T16:45:26.274Z,26.10
2018-05-29T16:47:53.695Z,26.10
2018-05-29T16:50:21.212Z,26.00
2018-05-29T16:52:48.631Z,25.90
2018-05-29T16:55:16.059Z,25.80
2018-05-29T16:57:44.375Z,25.60
2018-05-29T17:00:11.903Z,25.60
2018-05-29T17:02:40.106Z,25.60
2018-05-29T17:05:07.535Z,25.50
2018-05-29T17:07:34.955Z,25.40
2018-05-29T17:10:02.394Z,25.50
2018-05-29T17:12:29.806Z,25.50
2018-05-29T17:14:57.314Z,25.50
2018-05-29T17:17:24.731Z,25.40
2018-05-29T17:19:52.222Z,25.30
2018-05-29T17:22:19.642Z,25.20
2018-05-29T17:24:47.138Z,25.00
2018-05-29T17:27:14.571Z,24.90
2018-05-29T17:29:41.996Z,24.80
2018-05-29T17:32:09.459Z,24.90
2018-05-29T17:34:36.875Z,24.90
2018-05-29T17:37:04.304Z,24.80
2018-05-29T17:39:31.905Z,24.90
2018-05-29T17:41:59.342Z,24.90
2018-05-29T17:44:26.758Z,25.00
2018-05-29T17:46:54.242Z,25.00
2018-05-29T17:49:21.663Z,25.00
2018-05-29T17:51:49.098Z,25.10
2018-05-29T17:54:16.519Z,25.10
2018-05-29T17:56:44.013Z,25.10
2018-05-29T17:59:11.443Z,25.10
2018-05-29T18:01:38.862Z,25.10
2018-05-29T18:04:07.350Z,25.10
2018-05-29T18:06:34.795Z,24.90
2018-05-29T18:09:02.214Z,24.90
2018-05-29T18:11:29.634Z,25.00
2018-05-29T18:13:57.066Z,25.00
2018-05-29T18:16:24.635Z,25.00
2018-05-29T18:18:52.062Z,25.00
2018-05-29T18:21:19.494Z,25.00
2018-05-29T18:23:47.795Z,24.90
2018-05-29T18:26:15.327Z,24.80
2018-05-29T18:28:42.747Z,24.80
2018-05-29T18:31:10.230Z,24.70
2018-05-29T18:33:37.707Z,24.70
2018-05-29T18:36:05.130Z,24.70
2018-05-29T18:38:32.584Z,24.80
2018-05-29T18:40:59.991Z,24.80
2018-05-29T18:43:27.464Z,24.70
2018-05-29T18:45:54.898Z,24.70
2018-05-29T18:48:23.101Z,24.60
2018-05-29T18:50:50.518Z,24.50
2018-05-29T18:53:17.947Z,24.50
2018-05-29T18:55:45.371Z,24.50
2018-05-29T18:58:12.850Z,24.40
2018-05-29T19:00:40.387Z,24.30
2018-05-29T19:03:07.819Z,24.30
2018-05-29T19:05:35.243Z,24.30
2018-05-29T19:08:02.675Z,24.30
2018-05-29T19:10:30.095Z,24.20
2018-05-29T19:12:57.627Z,24.10
2018-05-29T19:15:25.051Z,24.00
2018-05-29T19:17:52.574Z,24.00
2018-05-29T19:20:19.999Z,23.90
2018-05-29T19:22:47.454Z,23.90
2018-05-29T19:25:15.803Z,23.80
2018-05-29T19:27:43.999Z,23.60
2018-05-29T19:30:11.415Z,23.70
2018-05-29T19:32:39.041Z,23.60
2018-05-29T19:35:06.482Z,23.60
2018-05-29T19:37:34.071Z,23.50
2018-05-29T19:40:01.702Z,23.50
2018-05-29T19:42:29.135Z,23.40
2018-05-29T19:44:57.318Z,23.30
2018-05-29T19:47:24.814Z,23.30
2018-05-29T19:49:52.241Z,23.30
2018-05-29T19:52:19.673Z,23.40
2018-05-29T19:54:47.859Z,23.20
2018-05-29T19:57:15.567Z,23.20
2018-05-29T19:59:42.983Z,23.20
2018-05-29T20:02:10.410Z,23.20
2018-05-29T20:04:37.856Z,23.20
2018-05-29T20:07:05.294Z,23.10
2018-05-29T20:09:32.726Z,23.00
2018-05-29T20:12:00.151Z,23.00
2018-05-29T20:14:28.346Z,23.10
2018-05-29T20:16:55.762Z,23.10
2018-05-29T20:19:23.217Z,23.20
2018-05-29T20:21:51.526Z,23.20
2018-05-29T20:24:18.950Z,23.10
2018-05-29T20:26:46.375Z,23.00
2018-05-29T20:29:14.052Z,23.00
2018-05-29T20:31:41.478Z,22.90
2018-05-29T20:34:08.939Z,22.80
2018-05-29T20:36:36.358Z,22.80
2018-05-29T20:39:03.795Z,22.70
2018-05-29T20:41:32.095Z,22.40
2018-05-29T20:44:00.374Z,22.50
2018-05-29T20:46:27.766Z,22.40
2018-05-29T20:48:55.175Z,22.40
2018-05-29T20:51:22.590Z,22.40
2018-05-29T20:53:50.028Z,22.40
2018-05-29T20:56:17.585Z,22.30
2018-05-29T20:58:45.016Z,22.30
2018-05-29T21:01:12.499Z,22.30
2018-05-29T21:03:39.955Z,22.20
2018-05-29T21:06:07.388Z,22.20
2018-05-29T21:08:34.816Z,22.10
2018-05-29T21:11:02.243Z,22.00
2018-05-29T21:13:29.673Z,21.90
2018-05-29T21:15:57.090Z,21.80
2018-05-29T21:18:25.290Z,21.60
2018-05-29T21:20:52.711Z,21.60
2018-05-29T21:23:20.148Z,21.60
2018-05-29T21:25:47.559Z,21.60
2018-05-29T21:28:15.772Z,21.50
2018-05-29T21:30:43.207Z,21.50
2018-05-29T21:33:10.655Z,21.40
2018-05-29T21:35:38.076Z,21.20
2018-05-29T21:38:05.570Z,21.10
2018-05-29T21:40:32.999Z,21.10
2018-05-29T21:43:00.424Z,21.00
2018-05-29T21:45:27.839Z,21.00
2018-05-29T21:47:55.271Z,20.90
2018-05-29T21:50:22.695Z,20.90
2018-05-29T21:52:50.919Z,20.80
2018-05-29T21:55:18.353Z,20.80
2018-05-29T21:57:45.772Z,20.80
2018-05-29T22:00:13.201Z,20.60
2018-05-29T22:02:40.647Z,20.60
2018-05-29T22:05:08.111Z,20.50
2018-05-29T22:07:35.654Z,20.40
2018-05-29T22:10:03.106Z,20.40
2018-05-29T22:12:30.526Z,20.30
2018-05-29T22:14:57.963Z,20.20
2018-05-29T22:17:26.403Z,20.10
2018-05-29T22:19:53.860Z,20.10
2018-05-29T22:22:21.315Z,20.10
2018-05-29T22:24:48.742Z,20.10
2018-05-29T22:27:16.163Z,20.10
2018-05-29T22:29:43.591Z,20.20
2018-05-29T22:32:11.010Z,20.20
2018-05-29T22:34:38.476Z,20.10
2018-05-29T22:37:05.907Z,20.10
2018-05-29T22:39:34.156Z,20.10
2018-05-29T22:42:01.535Z,20.00
2018-05-29T22:44:28.971Z,20.00
2018-05-29T22:46:57.304Z,20.00
2018-05-29T22:49:24.867Z,20.00
2018-05-29T22:51:52.287Z,19.90
2018-05-29T22:54:19.710Z,19.90
2018-05-29T22:56:47.140Z,20.00
2018-05-29T22:59:14.581Z,20.00
2018-05-29T23:01:42.050Z,20.00
2018-05-29T23:04:09.515Z,20.10
2018-05-29T23:06:36.942Z,20.00
2018-05-29T23:09:04.370Z,20.00
2018-05-29T23:11:32.550Z,20.00
2018-05-29T23:13:59.971Z,20.00
2018-05-29T23:16:27.400Z,20.10
2018-05-29T23:18:54.839Z,20.20
2018-05-29T23:21:22.410Z,20.30
2018-05-29T23:23:49.834Z,20.20
2018-05-29T23:26:17.322Z,20.10
2018-05-29T23:28:44.753Z,20.00
2018-05-29T23:31:12.234Z,19.90
2018-05-29T23:33:39.663Z,19.90
2018-05-29T23:36:07.087Z,19.80
2018-05-29T23:38:34.507Z,19.80
2018-05-29T23:41:01.939Z,19.70
2018-05-29T23:43:29.359Z,19.70
2018-05-29T23:45:56.795Z,19.60
2018-05-29T23:48:24.335Z,19.50
2018-05-29T23:50:51.763Z,19.40
2018-05-29T23:53:19.210Z,19.40
2018-05-29T23:55:46.639Z,19.30
2018-05-29T23:58:14.060Z,19.30
